Time;durP1;ratioP1;P1;durP2;ratioP2;P2;SDS_P1;SDS_P2;PMS_P1;PMS_P2;Temp;Humidity;BMP_temperature;BMP_pressure;BME280_temperature;BME280_humidity;BME280_pressure;Samples;Min_cycle;Max_cycle;Signal;HPM_P1;HPM_P2
2022/06/27 00:01:17;;;;;;;10.80;9.93;;;25.50;99.90;;;;;;5057465;28;20747;-43
2022/06/27 00:03:43;;;;;;;9.70;8.90;;;25.40;99.90;;;;;;5056428;28;20468;-53
2022/06/27 00:06:13;;;;;;;13.27;9.70;;;25.40;99.90;;;;;;5056935;28;20472;-50
2022/06/27 00:08:42;;;;;;;10.37;9.47;;;25.40;99.90;;;;;;5054593;28;20516;-56
2022/06/27 00:11:08;;;;;;;10.73;9.80;;;25.30;99.90;;;;;;5055268;28;20499;-51
2022/06/27 00:13:35;;;;;;;12.03;10.93;;;25.30;99.90;;;;;;5054887;28;20464;-57
2022/06/27 00:16:02;;;;;;;11.47;10.47;;;25.20;99.90;;;;;;5052185;28;20478;-54
2022/06/27 00:18:29;;;;;;;14.03;12.70;;;25.20;99.90;;;;;;5052505;28;20440;-57
2022/06/27 00:20:56;;;;;;;19.43;17.73;;;25.20;99.90;;;;;;5045933;28;20458;-60
2022/06/27 00:23:22;;;;;;;22.43;20.13;;;25.10;99.90;;;;;;5052368;28;20492;-48
2022/06/27 00:25:51;;;;;;;23.53;21.20;;;25.10;99.90;;;;;;5056206;28;20503;-44
2022/06/27 00:28:17;;;;;;;20.10;18.00;;;25.10;99.90;;;;;;5056165;28;20468;-57
2022/06/27 00:30:44;;;;;;;17.63;14.60;;;25.10;99.90;;;;;;5046961;28;20484;-51
2022/06/27 00:33:11;;;;;;;13.77;12.57;;;25.10;99.90;;;;;;5057017;28;20460;-50
2022/06/27 00:35:38;;;;;;;14.07;12.77;;;25.10;99.90;;;;;;5055644;28;20458;-51
2022/06/27 00:38:05;;;;;;;16.17;14.47;;;25.10;99.90;;;;;;5055626;28;20829;-51
2022/06/27 00:40:34;;;;;;;12.93;11.73;;;25.10;99.90;;;;;;5055658;28;20448;-54
2022/06/27 00:43:02;;;;;;;13.50;12.17;;;25.10;99.90;;;;;;5054858;28;20548;-56
2022/06/27 00:45:29;;;;;;;13.73;12.30;;;25.10;99.90;;;;;;5054972;28;20818;-55
2022/06/27 00:48:06;;;;;;;18.23;15.00;;;25.10;99.90;;;;;;5054433;28;20524;-42
2022/06/27 00:50:33;;;;;;;13.60;12.23;;;25.10;99.90;;;;;;5054206;28;20443;-51
2022/06/27 00:53:00;;;;;;;14.27;12.87;;;25.00;99.90;;;;;;5055130;28;20429;-41
2022/06/27 00:55:27;;;;;;;13.17;11.93;;;25.00;99.90;;;;;;5053771;28;20454;-54
2022/06/27 00:57:57;;;;;;;11.63;10.63;;;25.00;99.90;;;;;;5054610;28;20479;-50
2022/06/27 01:00:27;;;;;;;12.70;11.50;;;25.00;99.90;;;;;;5054420;28;20456;-50
2022/06/27 01:02:54;;;;;;;11.40;10.50;;;25.00;99.90;;;;;;5053387;28;20460;-60
2022/06/27 01:05:21;;;;;;;14.40;11.93;;;25.00;99.90;;;;;;5053706;28;20479;-41
2022/06/27 01:07:52;;;;;;;13.43;12.10;;;25.00;99.90;;;;;;5053989;28;20460;-48
2022/06/27 01:10:19;;;;;;;11.10;10.00;;;24.90;99.90;;;;;;5055296;28;20447;-54
2022/06/27 01:12:47;;;;;;;10.93;9.93;;;24.90;99.90;;;;;;5053024;28;20491;-51
2022/06/27 01:15:14;;;;;;;12.37;11.17;;;24.90;99.90;;;;;;5054493;28;20458;-60
2022/06/27 01:17:43;;;;;;;13.33;12.13;;;24.90;99.90;;;;;;5053740;28;20445;-60
2022/06/27 01:20:11;;;;;;;14.27;12.90;;;24.90;99.90;;;;;;5055404;28;20556;-54
2022/06/27 01:22:39;;;;;;;14.33;13.13;;;24.90;99.90;;;;;;5055362;28;20531;-60
2022/06/27 01:25:07;;;;;;;13.10;11.70;;;24.80;99.90;;;;;;5054857;28;20478;-58
2022/06/27 01:27:35;;;;;;;11.53;10.43;;;24.80;99.90;;;;;;5052916;28;20478;-60
2022/06/27 01:30:03;;;;;;;11.90;11.00;;;24.80;99.90;;;;;;5053843;28;20531;-53
2022/06/27 01:32:30;;;;;;;11.83;10.83;;;24.80;99.90;;;;;;5054039;28;20452;-50
2022/06/27 01:34:59;;;;;;;10.83;9.87;;;24.80;99.90;;;;;;5046358;28;20440;-49
2022/06/27 01:37:34;;;;;;;11.03;10.03;;;24.70;99.90;;;;;;5054200;28;20440;-49
2022/06/27 01:40:03;;;;;;;12.50;11.37;;;24.70;99.90;;;;;;5053014;28;20519;-52
2022/06/27 01:42:30;;;;;;;11.47;10.50;;;24.60;99.90;;;;;;5043219;28;20496;-54
2022/06/27 01:44:57;;;;;;;12.57;11.37;;;24.60;99.90;;;;;;5053457;28;20463;-48
2022/06/27 01:47:27;;;;;;;12.53;11.40;;;24.50;99.90;;;;;;5053682;28;20480;-52
2022/06/27 01:49:55;;;;;;;11.80;10.70;;;24.50;99.90;;;;;;5053235;28;20424;-51
2022/06/27 01:52:22;;;;;;;12.40;11.33;;;24.50;99.90;;;;;;5055639;28;20467;-58
2022/06/27 01:54:49;;;;;;;13.20;11.77;;;24.50;99.90;;;;;;5053527;28;20536;-54
2022/06/27 01:57:17;;;;;;;12.83;11.73;;;24.50;99.90;;;;;;5055296;28;20436;-57
2022/06/27 01:59:45;;;;;;;11.97;10.73;;;24.50;99.90;;;;;;5053312;28;20504;-50
2022/06/27 02:02:12;;;;;;;12.00;11.00;;;24.50;99.90;;;;;;5053848;28;20554;-54
2022/06/27 02:04:43;;;;;;;13.43;12.00;;;24.40;99.90;;;;;;5053159;28;20503;-52
2022/06/27 02:07:09;;;;;;;12.33;11.13;;;24.40;99.90;;;;;;5053971;28;20460;-55
2022/06/27 02:09:38;;;;;;;16.97;11.97;;;24.40;99.90;;;;;;5052649;28;20515;-51
2022/06/27 02:12:19;;;;;;;12.87;11.60;;;24.40;99.90;;;;;;5053879;28;20487;-46
2022/06/27 02:14:48;;;;;;;12.57;11.33;;;24.40;99.90;;;;;;5054236;28;20497;-41
2022/06/27 02:17:15;;;;;;;13.60;12.50;;;24.30;99.90;;;;;;5058237;28;20448;-58
2022/06/27 02:19:42;;;;;;;13.37;12.23;;;24.30;99.90;;;;;;5055082;28;20454;-53
2022/06/27 02:22:09;;;;;;;12.63;11.53;;;24.30;99.90;;;;;;5057166;28;20452;-52
2022/06/27 02:24:36;;;;;;;12.90;11.70;;;24.30;99.90;;;;;;5058005;28;20543;-53
2022/06/27 02:27:04;;;;;;;12.93;11.63;;;24.30;99.90;;;;;;5050007;28;20444;-59
2022/06/27 02:29:34;;;;;;;12.43;11.23;;;24.30;99.90;;;;;;5057530;28;20520;-47
2022/06/27 02:32:03;;;;;;;12.50;11.37;;;24.30;99.90;;;;;;5058133;28;20468;-52
2022/06/27 02:34:33;;;;;;;14.03;11.70;;;24.30;99.90;;;;;;5057332;28;20474;-50
2022/06/27 02:37:00;;;;;;;14.70;11.87;;;24.20;99.90;;;;;;5050378;28;20448;-60
2022/06/27 02:39:35;;;;;;;12.33;11.20;;;24.20;99.90;;;;;;5054531;28;20452;-49
2022/06/27 02:42:07;;;;;;;12.87;11.67;;;24.20;99.90;;;;;;5056557;28;20491;-49
2022/06/27 02:44:35;;;;;;;12.50;11.30;;;24.10;99.90;;;;;;5057385;28;20495;-48
2022/06/27 02:47:07;;;;;;;13.23;11.83;;;24.10;99.90;;;;;;5057472;28;20546;-55
2022/06/27 02:49:40;;;;;;;14.30;12.93;;;24.10;99.90;;;;;;5057008;28;20454;-46
2022/06/27 02:52:19;;;;;;;13.40;12.30;;;24.10;99.90;;;;;;5055720;28;20435;-51
2022/06/27 02:54:54;;;;;;;11.80;10.80;;;24.00;99.90;;;;;;5056500;28;20443;-44
2022/06/27 02:57:32;;;;;;;13.43;12.30;;;24.00;99.90;;;;;;5058199;28;20502;-47
2022/06/27 03:00:01;;;;;;;12.53;11.53;;;24.00;99.90;;;;;;5056023;28;20475;-50
2022/06/27 03:02:30;;;;;;;12.70;11.57;;;24.00;99.90;;;;;;5056272;28;20454;-50
2022/06/27 03:05:06;;;;;;;14.23;13.03;;;24.00;99.90;;;;;;5056422;28;20528;-55
2022/06/27 03:07:41;;;;;;;13.77;12.50;;;24.00;99.90;;;;;;5055357;28;20528;-55
2022/06/27 03:10:10;;;;;;;14.03;12.63;;;24.00;99.90;;;;;;5057635;28;20462;-53
2022/06/27 03:12:37;;;;;;;13.80;12.60;;;24.00;99.90;;;;;;5056863;28;20504;-46
2022/06/27 03:15:04;;;;;;;13.87;12.67;;;24.00;99.90;;;;;;5056051;28;20492;-45
2022/06/27 03:17:32;;;;;;;13.30;12.10;;;24.00;99.90;;;;;;5057705;28;20503;-51
2022/06/27 03:20:02;;;;;;;13.47;12.37;;;24.00;99.90;;;;;;5057149;28;20471;-48
2022/06/27 03:22:31;;;;;;;14.40;13.00;;;24.00;99.90;;;;;;5056832;28;20479;-53
2022/06/27 03:24:58;;;;;;;13.93;12.50;;;24.00;99.90;;;;;;5056015;28;20511;-44
2022/06/27 03:27:27;;;;;;;12.83;11.70;;;24.00;99.90;;;;;;5057060;28;20444;-45
2022/06/27 03:29:53;;;;;;;13.33;12.00;;;24.00;99.90;;;;;;5057038;28;20507;-47
2022/06/27 03:32:21;;;;;;;19.57;13.53;;;24.00;99.90;;;;;;5054718;28;20444;-58
2022/06/27 03:34:51;;;;;;;13.73;12.53;;;24.00;99.90;;;;;;5056124;28;20500;-40
2022/06/27 03:37:18;;;;;;;14.07;12.87;;;23.90;99.90;;;;;;5056684;28;20448;-59
2022/06/27 03:39:47;;;;;;;14.43;13.23;;;23.90;99.90;;;;;;5056308;28;20511;-55
2022/06/27 03:42:19;;;;;;;14.93;13.50;;;23.90;99.90;;;;;;5055535;28;20487;-59
2022/06/27 03:44:46;;;;;;;13.83;12.63;;;23.90;99.90;;;;;;5055258;28;20528;-53
2022/06/27 03:47:12;;;;;;;13.50;12.30;;;23.90;99.90;;;;;;5056779;28;20463;-52
2022/06/27 03:52:25;;;;;;;14.17;12.87;;;24.00;99.90;;;;;;5056206;28;20403;-52
2022/06/27 03:54:52;;;;;;;14.87;13.50;;;23.90;99.90;;;;;;5056791;28;20456;-51
2022/06/27 03:57:19;;;;;;;14.10;12.70;;;23.90;99.90;;;;;;5055835;28;20480;-56
2022/06/27 03:59:46;;;;;;;15.63;14.00;;;23.90;99.90;;;;;;5056231;28;20468;-49
2022/06/27 04:02:14;;;;;;;14.77;13.47;;;23.90;99.90;;;;;;5056892;28;20531;-49
2022/06/27 04:04:41;;;;;;;14.60;13.30;;;23.90;99.90;;;;;;5055779;28;20552;-48
2022/06/27 04:07:07;;;;;;;15.23;13.73;;;23.90;99.90;;;;;;5055321;28;20456;-58
2022/06/27 04:09:36;;;;;;;14.90;13.50;;;23.90;99.90;;;;;;5055817;28;20440;-43
2022/06/27 04:12:03;;;;;;;15.00;13.53;;;23.90;99.90;;;;;;5055739;28;20511;-61
2022/06/27 04:14:30;;;;;;;15.17;13.80;;;24.00;99.90;;;;;;5054756;28;20510;-57
2022/06/27 04:16:56;;;;;;;15.73;14.30;;;24.00;99.90;;;;;;5055547;28;20505;-51
2022/06/27 04:19:27;;;;;;;14.20;13.00;;;24.00;99.90;;;;;;5056761;28;20524;-45
2022/06/27 04:21:54;;;;;;;14.70;13.40;;;24.00;99.90;;;;;;5056056;28;20442;-58
2022/06/27 04:24:21;;;;;;;13.80;12.70;;;24.00;99.90;;;;;;5054421;28;20480;-49
2022/06/27 04:26:49;;;;;;;15.90;14.50;;;24.10;99.90;;;;;;5054612;28;20440;-42
2022/06/27 04:29:16;;;;;;;15.70;14.10;;;24.10;99.90;;;;;;5056042;28;20420;-51
2022/06/27 04:31:43;;;;;;;14.80;13.57;;;24.10;99.90;;;;;;5055237;28;20503;-52
2022/06/27 04:34:12;;;;;;;13.80;12.70;;;24.20;99.90;;;;;;5055926;28;20451;-49
2022/06/27 04:36:39;;;;;;;13.57;12.33;;;24.20;99.90;;;;;;5055852;28;20462;-54
2022/06/27 04:39:06;;;;;;;14.30;13.10;;;24.20;99.90;;;;;;5050454;28;20502;-55
2022/06/27 04:41:33;;;;;;;14.57;13.27;;;24.30;99.90;;;;;;5049461;28;20470;-47
2022/06/27 04:44:02;;;;;;;15.40;13.87;;;24.30;99.90;;;;;;5054355;28;20523;-56
2022/06/27 04:46:28;;;;;;;15.43;13.80;;;24.40;99.90;;;;;;5055300;28;20440;-50
2022/06/27 04:48:57;;;;;;;14.33;13.00;;;24.40;99.90;;;;;;5055276;28;20425;-50
2022/06/27 04:51:24;;;;;;;13.40;12.07;;;24.40;99.90;;;;;;5055653;28;20514;-50
2022/06/27 04:53:51;;;;;;;14.70;13.30;;;24.50;99.90;;;;;;5055051;28;20488;-48
2022/06/27 04:56:19;;;;;;;14.60;13.10;;;24.50;99.90;;;;;;5054487;28;20440;-42
2022/06/27 04:58:45;;;;;;;13.77;12.57;;;24.60;99.90;;;;;;5054962;28;20490;-46
2022/06/27 05:01:14;;;;;;;13.17;11.90;;;24.60;99.90;;;;;;5054750;28;20520;-52
2022/06/27 05:03:40;;;;;;;14.00;12.10;;;24.70;99.90;;;;;;5048781;28;20527;-60
2022/06/27 05:06:07;;;;;;;13.53;12.23;;;24.70;99.90;;;;;;5043218;28;20462;-57
2022/06/27 05:08:37;;;;;;;14.40;13.10;;;24.80;99.90;;;;;;5045422;28;20719;-60
2022/06/27 05:11:04;;;;;;;14.40;13.00;;;24.80;99.90;;;;;;5045496;28;20440;-51
2022/06/27 05:13:31;;;;;;;13.17;12.03;;;24.90;99.90;;;;;;5047025;28;20479;-58
2022/06/27 05:15:58;;;;;;;15.20;12.77;;;24.90;99.90;;;;;;5045747;28;20476;-40
2022/06/27 05:18:27;;;;;;;13.10;11.90;;;25.00;99.90;;;;;;5045518;28;20499;-57
2022/06/27 05:20:53;;;;;;;13.67;12.57;;;25.00;99.90;;;;;;5050051;28;20503;-54
2022/06/27 05:23:20;;;;;;;12.97;11.87;;;25.10;99.90;;;;;;5047658;28;20472;-56
2022/06/27 05:25:47;;;;;;;13.23;12.10;;;25.10;99.90;;;;;;5044255;28;20460;-54
2022/06/27 05:28:15;;;;;;;13.40;12.20;;;25.20;99.90;;;;;;5048175;28;20444;-51
2022/06/27 05:30:42;;;;;;;14.83;13.27;;;25.30;99.90;;;;;;5048389;28;20873;-60
2022/06/27 05:33:11;;;;;;;13.33;12.00;;;25.30;99.90;;;;;;5043918;28;20475;-56
2022/06/27 05:35:40;;;;;;;13.80;12.50;;;25.40;99.90;;;;;;5046724;28;20452;-49
2022/06/27 05:38:08;;;;;;;12.73;11.50;;;25.40;99.90;;;;;;5044459;28;20486;-60
2022/06/27 05:40:35;;;;;;;12.60;11.17;;;25.50;99.90;;;;;;5046001;28;20456;-60
2022/06/27 05:43:03;;;;;;;11.57;10.50;;;25.60;99.90;;;;;;5046480;28;20487;-46
2022/06/27 05:45:30;;;;;;;12.30;11.30;;;25.70;99.90;;;;;;5047468;28;20563;-56
2022/06/27 05:48:00;;;;;;;12.03;11.03;;;25.70;99.90;;;;;;5045335;28;20437;-61
2022/06/27 05:50:27;;;;;;;11.70;10.57;;;25.80;99.90;;;;;;5049303;28;20471;-44
2022/06/27 05:52:56;;;;;;;11.80;10.90;;;25.80;99.90;;;;;;5050387;28;20463;-60
2022/06/27 05:55:25;;;;;;;13.73;12.33;;;25.90;99.90;;;;;;5050949;28;20475;-62
2022/06/27 05:57:54;;;;;;;12.00;10.90;;;25.90;99.90;;;;;;5046259;28;20547;-61
2022/06/27 06:00:21;;;;;;;11.33;10.30;;;26.00;99.90;;;;;;5048406;28;20444;-49
2022/06/27 06:02:48;;;;;;;12.70;11.57;;;26.10;99.90;;;;;;5045621;28;20475;-44
2022/06/27 06:05:18;;;;;;;11.03;10.03;;;26.20;99.90;;;;;;5047781;28;20490;-54
2022/06/27 06:07:45;;;;;;;11.13;10.23;;;26.30;99.90;;;;;;5045326;28;20436;-51
2022/06/27 06:10:14;;;;;;;11.80;10.80;;;26.40;99.90;;;;;;5042396;28;21028;-56
2022/06/27 06:12:43;;;;;;;13.53;12.23;;;26.50;99.90;;;;;;5044142;28;20539;-61
2022/06/27 06:15:11;;;;;;;13.27;11.07;;;26.50;99.90;;;;;;5039886;28;20597;-55
2022/06/27 06:17:38;;;;;;;12.07;11.17;;;26.60;99.90;;;;;;5045269;28;20470;-56
2022/06/27 06:20:07;;;;;;;12.10;11.00;;;26.70;99.90;;;;;;5046269;28;20539;-59
2022/06/27 06:22:34;;;;;;;12.23;11.00;;;26.80;99.90;;;;;;5040050;28;20467;-52
2022/06/27 06:25:02;;;;;;;13.00;11.80;;;26.90;99.90;;;;;;5044702;28;20472;-58
2022/06/27 06:27:30;;;;;;;11.43;10.43;;;26.90;99.90;;;;;;5043814;28;20456;-57
2022/06/27 06:29:59;;;;;;;11.20;10.20;;;27.00;99.90;;;;;;5044010;28;20472;-59
2022/06/27 06:32:27;;;;;;;11.50;10.47;;;27.00;99.90;;;;;;5045872;28;20800;-59
2022/06/27 06:34:54;;;;;;;12.03;11.03;;;27.10;99.90;;;;;;5044164;28;20454;-58
2022/06/27 06:37:27;;;;;;;10.70;9.80;;;27.10;99.90;;;;;;5046549;28;20446;-58
2022/06/27 06:39:54;;;;;;;11.97;11.07;;;27.20;99.90;;;;;;5034689;28;20483;-61
2022/06/27 06:42:22;;;;;;;11.90;10.67;;;27.30;99.90;;;;;;5043895;28;20476;-59
2022/06/27 06:44:52;;;;;;;11.80;10.73;;;27.40;99.90;;;;;;5042670;28;20562;-58
2022/06/27 06:47:19;;;;;;;12.67;11.57;;;27.60;99.90;;;;;;5046476;28;20452;-53
2022/06/27 06:49:49;;;;;;;13.63;11.30;;;27.70;99.90;;;;;;5051448;28;20476;-51
2022/06/27 06:52:17;;;;;;;15.27;12.40;;;27.80;99.90;;;;;;5054802;28;20428;-50
2022/06/27 06:54:45;;;;;;;11.97;10.77;;;27.90;99.90;;;;;;5053308;28;20436;-53
2022/06/27 06:57:13;;;;;;;12.70;11.60;;;27.90;99.90;;;;;;5053819;28;20527;-56
2022/06/27 06:59:40;;;;;;;16.33;11.70;;;28.00;99.90;;;;;;5055403;28;20482;-59
2022/06/27 07:02:13;;;;;;;12.27;11.17;;;28.10;99.90;;;;;;5050711;28;20469;-59
2022/06/27 07:04:40;;;;;;;10.77;9.40;;;28.30;99.90;;;;;;5056315;28;20448;-56
2022/06/27 07:07:06;;;;;;;10.13;9.13;;;28.40;99.90;;;;;;5054452;28;20432;-56
2022/06/27 07:09:33;;;;;;;11.80;10.90;;;28.60;99.90;;;;;;5055648;28;20527;-56
2022/06/27 07:12:02;;;;;;;10.03;9.10;;;28.80;99.90;;;;;;5052993;28;20444;-52
2022/06/27 07:14:31;;;;;;;9.87;8.97;;;29.00;99.90;;;;;;5056743;28;20524;-51
2022/06/27 07:16:58;;;;;;;8.97;8.30;;;29.30;99.90;;;;;;5056092;28;20464;-52
2022/06/27 07:19:26;;;;;;;9.20;8.40;;;29.60;99.90;;;;;;5055196;28;20512;-59
2022/06/27 07:21:55;;;;;;;10.03;9.03;;;30.40;99.90;;;;;;5052630;28;20447;-57
2022/06/27 07:24:22;;;;;;;9.10;8.37;;;31.80;99.90;;;;;;5055944;28;20543;-58
2022/06/27 07:26:49;;;;;;;8.57;7.87;;;33.60;99.90;;;;;;5057194;28;20475;-55
2022/06/27 07:29:16;;;;;;;9.07;8.10;;;35.40;94.40;;;;;;5057294;28;20417;-52
2022/06/27 07:31:43;;;;;;;9.53;8.57;;;36.90;86.10;;;;;;5055827;28;20483;-56
2022/06/27 07:34:12;;;;;;;7.40;6.90;;;38.30;75.60;;;;;;5048377;28;20464;-55
2022/06/27 07:36:40;;;;;;;8.80;8.00;;;39.60;67.40;;;;;;5057661;28;20440;-60
2022/06/27 07:39:07;;;;;;;8.80;7.00;;;40.90;60.90;;;;;;5049982;28;20540;-52
2022/06/27 07:41:34;;;;;;;8.27;7.47;;;41.90;56.00;;;;;;5056702;28;20424;-59
2022/06/27 07:44:03;;;;;;;8.03;7.43;;;42.70;52.50;;;;;;5056723;28;20470;-56
2022/06/27 07:46:31;;;;;;;8.47;7.77;;;42.90;50.50;;;;;;5055413;28;20472;-53
2022/06/27 07:48:58;;;;;;;8.03;7.27;;;43.20;50.10;;;;;;5049742;28;20439;-57
2022/06/27 07:51:25;;;;;;;7.20;6.53;;;43.50;47.30;;;;;;5056640;28;20452;-56
2022/06/27 07:53:54;;;;;;;7.67;7.17;;;43.70;46.90;;;;;;5055954;28;20523;-59
2022/06/27 07:56:22;;;;;;;7.20;6.67;;;44.00;46.10;;;;;;5056412;28;20527;-53
2022/06/27 07:58:49;;;;;;;8.07;7.07;;;44.30;44.00;;;;;;5055720;28;20463;-51
2022/06/27 08:01:18;;;;;;;8.07;7.43;;;44.40;44.10;;;;;;5055327;28;20739;-55
2022/06/27 08:03:47;;;;;;;7.93;7.43;;;44.50;44.30;;;;;;5056647;28;20443;-53
2022/06/27 08:06:16;;;;;;;7.23;6.47;;;44.70;43.40;;;;;;5055886;28;20487;-53
2022/06/27 08:08:45;;;;;;;10.20;9.40;;;45.00;41.00;;;;;;5055975;28;20446;-54
2022/06/27 08:11:15;;;;;;;11.50;10.50;;;45.20;40.00;;;;;;5057018;28;20498;-57
2022/06/27 08:13:47;;;;;;;6.33;5.93;;;45.10;40.10;;;;;;5056931;28;20454;-57
2022/06/27 08:16:15;;;;;;;7.50;7.00;;;44.70;39.70;;;;;;5046449;28;20420;-59
2022/06/27 08:18:44;;;;;;;7.93;7.33;;;44.40;40.20;;;;;;5055661;28;20467;-54
2022/06/27 08:21:14;;;;;;;12.23;11.03;;;44.30;40.30;;;;;;5055808;28;20447;-54
2022/06/27 08:23:42;;;;;;;39.03;35.17;;;44.50;41.00;;;;;;5047423;28;20498;-56
2022/06/27 08:26:12;;;;;;;17.03;15.43;;;44.50;39.90;;;;;;5055517;28;20543;-56
2022/06/27 08:28:42;;;;;;;11.57;10.53;;;44.30;40.80;;;;;;5055414;28;20464;-56
2022/06/27 08:31:12;;;;;;;5.90;5.40;;;44.30;41.40;;;;;;5055974;28;20500;-62
2022/06/27 08:33:40;;;;;;;6.57;5.90;;;44.70;39.70;;;;;;5056146;28;20444;-56
2022/06/27 08:36:08;;;;;;;10.03;6.87;;;44.70;40.10;;;;;;5055367;28;20443;-57
2022/06/27 08:38:42;;;;;;;6.43;6.00;;;44.80;40.20;;;;;;5056401;28;20459;-57
2022/06/27 08:41:13;;;;;;;6.73;5.80;;;45.10;39.80;;;;;;5055641;28;20474;-55
2022/06/27 08:43:41;;;;;;;5.33;4.83;;;44.90;39.30;;;;;;5055471;28;20432;-61
2022/06/27 08:46:12;;;;;;;5.40;4.90;;;44.50;38.90;;;;;;5055861;28;20515;-56
2022/06/27 08:48:41;;;;;;;4.60;4.30;;;44.40;39.70;;;;;;5055282;28;20435;-60
2022/06/27 08:51:09;;;;;;;4.60;4.20;;;44.40;39.50;;;;;;5055335;28;20444;-57
2022/06/27 08:53:36;;;;;;;4.87;4.30;;;44.70;39.10;;;;;;5055879;28;20475;-57
2022/06/27 08:56:05;;;;;;;5.47;5.10;;;44.50;39.20;;;;;;5054346;28;20730;-60
2022/06/27 08:58:32;;;;;;;4.73;4.33;;;44.20;39.30;;;;;;5055319;28;20472;-55
2022/06/27 09:01:00;;;;;;;4.70;4.40;;;44.10;39.80;;;;;;5055653;28;20478;-59
2022/06/27 09:03:29;;;;;;;5.50;4.80;;;44.20;39.50;;;;;;5056161;28;20448;-59
2022/06/27 09:05:58;;;;;;;6.40;5.80;;;44.50;38.70;;;;;;5056162;28;20467;-58
2022/06/27 09:08:28;;;;;;;5.07;4.70;;;44.50;38.70;;;;;;5056039;28;20444;-57
2022/06/27 09:10:56;;;;;;;4.63;4.33;;;44.50;38.60;;;;;;5056636;28;20472;-53
2022/06/27 09:13:24;;;;;;;5.73;5.03;;;44.50;38.60;;;;;;5056055;28;20459;-54
2022/06/27 09:15:53;;;;;;;5.67;5.17;;;44.70;39.00;;;;;;5056074;28;20839;-61
2022/06/27 09:18:23;;;;;;;4.90;4.60;;;44.80;39.00;;;;;;5055204;28;20487;-58
2022/06/27 09:20:54;;;;;;;5.23;4.60;;;44.60;38.80;;;;;;5054877;28;20470;-59
2022/06/27 09:23:40;;;;;;;5.03;4.60;;;44.60;39.10;;;;;;5054911;28;20460;-56
2022/06/27 09:26:12;;;;;;;5.23;4.83;;;44.70;38.50;;;;;;5054410;28;20464;-57
2022/06/27 09:28:45;;;;;;;5.10;4.80;;;45.00;37.70;;;;;;5050122;28;20470;-61
2022/06/27 09:31:30;;;;;;;5.50;5.00;;;44.80;37.60;;;;;;5052757;28;20444;-57
2022/06/27 09:34:04;;;;;;;5.80;5.30;;;44.50;38.50;;;;;;5054709;28;20460;-58
2022/06/27 09:36:34;;;;;;;5.10;4.60;;;44.30;38.70;;;;;;5054835;28;20447;-56
2022/06/27 09:39:02;;;;;;;6.07;5.57;;;44.10;38.30;;;;;;5055022;28;20550;-61
2022/06/27 09:41:30;;;;;;;5.20;4.80;;;44.00;37.80;;;;;;5054014;28;20463;-62
2022/06/27 09:44:02;;;;;;;5.00;4.60;;;43.90;37.70;;;;;;5045300;28;20459;-52
2022/06/27 09:46:35;;;;;;;5.90;5.20;;;43.80;38.00;;;;;;5053940;28;20470;-59
2022/06/27 09:49:05;;;;;;;5.10;4.60;;;43.90;38.30;;;;;;5053325;28;20404;-57
2022/06/27 09:51:34;;;;;;;5.13;4.63;;;43.80;37.10;;;;;;5053486;28;20490;-57
2022/06/27 09:54:08;;;;;;;4.23;3.93;;;43.80;37.30;;;;;;5055519;28;20452;-54
2022/06/27 09:56:38;;;;;;;4.60;4.10;;;43.60;37.60;;;;;;5054496;28;20464;-57
2022/06/27 09:59:06;;;;;;;4.23;3.83;;;43.80;37.30;;;;;;5054410;28;20523;-55
2022/06/27 10:01:33;;;;;;;4.27;3.87;;;43.90;36.50;;;;;;5054082;28;20460;-52
2022/06/27 10:04:03;;;;;;;3.80;3.50;;;43.80;36.80;;;;;;5054297;28;20447;-55
2022/06/27 10:06:31;;;;;;;4.20;3.70;;;43.70;36.00;;;;;;5053108;28;20492;-50
2022/06/27 10:09:00;;;;;;;4.27;3.97;;;43.60;36.20;;;;;;5053382;28;20932;-57
2022/06/27 10:11:27;;;;;;;4.47;4.03;;;43.60;36.40;;;;;;5054172;28;20470;-57
2022/06/27 10:14:32;;;;;;;4.50;4.10;;;43.50;36.40;;;;;;5054285;28;20452;-59
2022/06/27 10:17:00;;;;;;;4.50;4.10;;;43.10;36.80;;;;;;5052456;28;20452;-54
2022/06/27 10:19:29;;;;;;;4.03;3.77;;;43.00;37.00;;;;;;5053624;28;20480;-54
2022/06/27 10:21:57;;;;;;;6.10;4.60;;;42.80;38.00;;;;;;5053104;28;20435;-53
2022/06/27 10:24:34;;;;;;;4.50;4.20;;;42.60;38.30;;;;;;5051440;28;20490;-57
2022/06/27 10:27:06;;;;;;;4.50;4.10;;;42.50;38.10;;;;;;5053674;28;20479;-53
2022/06/27 10:29:42;;;;;;;4.57;4.27;;;42.20;38.10;;;;;;5053443;28;20482;-60
2022/06/27 10:32:31;;;;;;;4.27;3.97;;;41.80;38.50;;;;;;5055231;28;20471;-59
2022/06/27 10:35:11;;;;;;;3.87;3.63;;;41.40;38.90;;;;;;5050977;28;20892;-60
2022/06/27 10:37:39;;;;;;;4.90;4.50;;;41.00;39.60;;;;;;5054415;28;20464;-53
2022/06/27 10:40:43;;;;;;;4.10;3.70;;;41.00;40.90;;;;;;5055581;28;20531;-55
2022/06/27 10:43:30;;;;;;;4.10;3.80;;;40.50;38.90;;;;;;5044040;28;20474;-57
2022/06/27 10:45:56;;;;;;;4.90;4.10;;;40.40;38.40;;;;;;5055775;28;20498;-45
2022/06/27 10:48:35;;;;;;;5.73;4.00;;;40.20;38.70;;;;;;5055616;28;20447;-49
2022/06/27 10:51:22;;;;;;;4.97;4.33;;;40.10;39.30;;;;;;5056402;28;20459;-51
2022/06/27 10:53:50;;;;;;;4.80;4.40;;;39.90;39.90;;;;;;5058218;28;20423;-56
2022/06/27 10:56:33;;;;;;;4.50;4.10;;;39.50;40.30;;;;;;5053300;28;20464;-56
2022/06/27 10:59:01;;;;;;;4.33;4.00;;;39.60;40.60;;;;;;5054169;28;20444;-56
2022/06/27 11:01:31;;;;;;;4.37;3.97;;;39.40;40.30;;;;;;5046265;28;20464;-57
2022/06/27 11:03:58;;;;;;;4.30;4.00;;;39.30;40.30;;;;;;5074346;28;20483;-56
2022/06/27 11:06:27;;;;;;;3.97;3.67;;;39.00;40.70;;;;;;5075206;28;20467;-53
2022/06/27 11:08:56;;;;;;;7.40;3.93;;;38.60;41.40;;;;;;5076570;28;20482;-53
2022/06/27 11:11:25;;;;;;;4.37;4.07;;;38.40;41.90;;;;;;5057829;28;20463;-57
2022/06/27 11:13:53;;;;;;;4.37;4.07;;;38.20;42.40;;;;;;5056720;28;20476;-56
2022/06/27 11:16:22;;;;;;;4.50;3.93;;;37.90;42.70;;;;;;5057614;28;20436;-59
2022/06/27 11:18:51;;;;;;;5.00;4.60;;;37.80;42.30;;;;;;5055112;28;20456;-57
2022/06/27 11:21:19;;;;;;;4.20;3.90;;;38.00;42.80;;;;;;5054572;28;20471;-58
2022/06/27 11:24:06;;;;;;;4.80;3.40;;;37.80;42.20;;;;;;5052260;28;20444;-57
2022/06/27 11:26:35;;;;;;;6.87;3.73;;;37.90;42.20;;;;;;5055436;28;20534;-51
2022/06/27 11:32:01;;;;;;;6.20;4.80;;;37.70;43.30;;;;;;5045902;28;20451;-57
2022/06/27 11:34:29;;;;;;;4.57;4.27;;;37.80;42.60;;;;;;5055453;28;20436;-54
2022/06/27 11:36:57;;;;;;;5.23;4.73;;;37.70;43.00;;;;;;5054050;28;20475;-59
2022/06/27 11:39:28;;;;;;;5.93;4.60;;;37.50;43.20;;;;;;5046429;28;20491;-56
2022/06/27 11:41:57;;;;;;;4.53;4.23;;;37.50;43.50;;;;;;5048921;28;20448;-52
2022/06/27 11:44:24;;;;;;;5.60;4.63;;;37.50;43.60;;;;;;5050931;28;20474;-56
2022/06/27 11:46:52;;;;;;;4.80;4.40;;;37.70;43.10;;;;;;5051493;28;20531;-59
2022/06/27 11:49:28;;;;;;;4.40;4.10;;;38.00;42.70;;;;;;5051390;28;20534;-60
2022/06/27 11:51:59;;;;;;;5.87;4.50;;;38.10;42.40;;;;;;5048928;28;20458;-56
2022/06/27 11:54:39;;;;;;;5.40;4.30;;;38.20;41.90;;;;;;5049896;28;20455;-59
2022/06/27 11:57:23;;;;;;;4.70;3.90;;;38.20;41.80;;;;;;5047418;28;20504;-61
2022/06/27 11:59:50;;;;;;;4.07;3.77;;;38.00;41.70;;;;;;5044707;28;20901;-59
2022/06/27 12:02:27;;;;;;;3.90;3.60;;;37.50;41.80;;;;;;5043035;28;20972;-53
2022/06/27 12:05:03;;;;;;;4.13;3.83;;;37.00;42.60;;;;;;5042425;28;20475;-55
2022/06/27 12:07:30;;;;;;;6.10;4.50;;;36.80;43.20;;;;;;5040776;28;20496;-48
2022/06/27 12:10:01;;;;;;;5.80;3.70;;;36.70;43.20;;;;;;5042098;28;20444;-55
2022/06/27 12:12:29;;;;;;;5.40;4.20;;;36.70;43.10;;;;;;5040452;28;20437;-52
2022/06/27 12:14:56;;;;;;;5.03;4.50;;;36.70;43.40;;;;;;5040332;28;20455;-53
2022/06/27 12:17:37;;;;;;;5.00;4.30;;;36.70;43.90;;;;;;5040818;28;20934;-54
2022/06/27 12:20:08;;;;;;;4.40;4.00;;;36.70;43.90;;;;;;5043013;28;20496;-54
2022/06/27 12:22:35;;;;;;;6.50;3.93;;;36.70;43.80;;;;;;5042397;28;20510;-51
2022/06/27 12:25:03;;;;;;;4.43;4.03;;;36.70;44.40;;;;;;5042139;28;20452;-51
2022/06/27 12:27:30;;;;;;;4.10;3.80;;;36.70;43.60;;;;;;5040813;28;20476;-56
2022/06/27 12:29:59;;;;;;;6.83;5.00;;;36.80;43.50;;;;;;5040649;28;20543;-53
2022/06/27 12:32:26;;;;;;;4.13;3.73;;;36.80;43.80;;;;;;5041981;28;20444;-57
2022/06/27 12:34:53;;;;;;;5.77;3.90;;;36.80;42.90;;;;;;5044380;28;20440;-54
2022/06/27 12:37:20;;;;;;;4.40;4.00;;;36.80;42.80;;;;;;5040981;28;20629;-54
2022/06/27 12:39:46;;;;;;;4.50;4.10;;;36.80;43.10;;;;;;5041728;28;20444;-54
2022/06/27 12:42:15;;;;;;;5.57;3.67;;;36.70;43.30;;;;;;5038861;28;21249;-52
2022/06/27 12:44:42;;;;;;;4.70;4.30;;;36.60;43.50;;;;;;5039786;28;20444;-53
2022/06/27 12:47:09;;;;;;;4.70;4.30;;;36.70;43.30;;;;;;5041434;28;20495;-54
2022/06/27 12:49:36;;;;;;;3.67;3.37;;;36.70;42.70;;;;;;5039931;28;20487;-55
2022/06/27 12:52:04;;;;;;;4.40;4.00;;;36.70;43.10;;;;;;5041192;28;20469;-56